Terminal Aerodrome Forecast
Issued by NWS Pueblo, CO

Home | Current Version | Previous Version | Text Only | Print | Product List | Glossary On
Versions: 1 2 3 4 5 6 7 8 9 10 11 12 13 14 15 16 17
000
FTUS45 KPUB 110015 AAA
TAFPUB
TAF AMD
KPUB 110015Z 1100/1124 30014KT P6SM SCT100 BKN150 WS020/28034KT
     FM111400 10008KT P6SM FEW150 SCT200=

USA.gov is the U.S. government's official web portal to all federal, state and local government web resources and services.